sensor_id;sensor_type;location;lat;lon;timestamp;P1;durP1;ratioP1;P2;durP2;ratioP2
27003;SDS011;14546;47.590;19.022;2023-08-17T00:00:27;12.88;;;11.57;;
27003;SDS011;14546;47.590;19.022;2023-08-17T00:02:53;22.23;;;12.82;;
27003;SDS011;14546;47.590;19.022;2023-08-17T00:05:19;15.98;;;11.52;;
27003;SDS011;14546;47.590;19.022;2023-08-17T00:07:45;17.75;;;12.82;;
27003;SDS011;14546;47.590;19.022;2023-08-17T00:10:11;15.13;;;12.57;;
27003;SDS011;14546;47.590;19.022;2023-08-17T00:12:37;15.95;;;13.65;;
27003;SDS011;14546;47.590;19.022;2023-08-17T00:15:03;18.77;;;13.18;;
27003;SDS011;14546;47.590;19.022;2023-08-17T00:17:31;17.33;;;13.57;;
27003;SDS011;14546;47.590;19.022;2023-08-17T00:19:57;14.93;;;12.73;;
27003;SDS011;14546;47.590;19.022;2023-08-17T00:22:23;19.80;;;14.82;;
27003;SDS011;14546;47.590;19.022;2023-08-17T00:24:49;21.20;;;14.60;;
27003;SDS011;14546;47.590;19.022;2023-08-17T00:27:15;17.85;;;15.02;;
27003;SDS011;14546;47.590;19.022;2023-08-17T00:29:41;22.10;;;14.35;;
27003;SDS011;14546;47.590;19.022;2023-08-17T00:32:07;21.50;;;15.25;;
27003;SDS011;14546;47.590;19.022;2023-08-17T00:34:33;15.77;;;14.25;;
27003;SDS011;14546;47.590;19.022;2023-08-17T00:36:59;24.05;;;16.40;;
27003;SDS011;14546;47.590;19.022;2023-08-17T00:39:25;30.90;;;16.58;;
27003;SDS011;14546;47.590;19.022;2023-08-17T00:41:51;18.50;;;16.00;;
27003;SDS011;14546;47.590;19.022;2023-08-17T00:44:17;22.90;;;16.20;;
27003;SDS011;14546;47.590;19.022;2023-08-17T00:46:43;23.10;;;17.00;;
27003;SDS011;14546;47.590;19.022;2023-08-17T00:49:09;23.25;;;16.42;;
27003;SDS011;14546;47.590;19.022;2023-08-17T00:51:36;25.42;;;16.58;;
27003;SDS011;14546;47.590;19.022;2023-08-17T00:54:02;19.63;;;16.33;;
27003;SDS011;14546;47.590;19.022;2023-08-17T00:56:28;18.27;;;15.85;;
27003;SDS011;14546;47.590;19.022;2023-08-17T00:58:55;20.13;;;16.90;;
27003;SDS011;14546;47.590;19.022;2023-08-17T01:01:21;27.95;;;16.98;;
27003;SDS011;14546;47.590;19.022;2023-08-17T01:03:47;23.90;;;15.85;;
27003;SDS011;14546;47.590;19.022;2023-08-17T01:06:13;21.80;;;17.17;;
27003;SDS011;14546;47.590;19.022;2023-08-17T01:08:40;20.38;;;16.92;;
27003;SDS011;14546;47.590;19.022;2023-08-17T01:16:21;21.42;;;15.32;;
27003;SDS011;14546;47.590;19.022;2023-08-17T01:18:50;20.92;;;16.27;;
27003;SDS011;14546;47.590;19.022;2023-08-17T01:21:17;20.65;;;16.23;;
27003;SDS011;14546;47.590;19.022;2023-08-17T01:23:45;15.90;;;14.10;;
27003;SDS011;14546;47.590;19.022;2023-08-17T01:26:11;18.60;;;15.18;;
27003;SDS011;14546;47.590;19.022;2023-08-17T01:28:41;17.83;;;15.95;;
27003;SDS011;14546;47.590;19.022;2023-08-17T01:31:20;19.23;;;15.23;;
27003;SDS011;14546;47.590;19.022;2023-08-17T01:33:48;19.10;;;15.77;;
27003;SDS011;14546;47.590;19.022;2023-08-17T01:36:35;19.88;;;15.90;;
27003;SDS011;14546;47.590;19.022;2023-08-17T01:39:03;20.20;;;15.25;;
27003;SDS011;14546;47.590;19.022;2023-08-17T01:41:30;21.75;;;15.57;;
27003;SDS011;14546;47.590;19.022;2023-08-17T01:43:56;22.80;;;16.73;;
27003;SDS011;14546;47.590;19.022;2023-08-17T01:46:24;21.83;;;16.60;;
27003;SDS011;14546;47.590;19.022;2023-08-17T01:48:53;25.70;;;17.08;;
27003;SDS011;14546;47.590;19.022;2023-08-17T01:51:21;33.10;;;17.42;;
27003;SDS011;14546;47.590;19.022;2023-08-17T01:53:47;20.42;;;17.80;;
27003;SDS011;14546;47.590;19.022;2023-08-17T01:56:13;22.13;;;17.08;;
27003;SDS011;14546;47.590;19.022;2023-08-17T01:58:39;28.95;;;17.67;;
27003;SDS011;14546;47.590;19.022;2023-08-17T02:01:05;22.38;;;18.23;;
27003;SDS011;14546;47.590;19.022;2023-08-17T02:03:31;30.02;;;18.63;;
27003;SDS011;14546;47.590;19.022;2023-08-17T02:05:58;25.95;;;17.25;;
27003;SDS011;14546;47.590;19.022;2023-08-17T02:08:24;25.85;;;17.50;;
27003;SDS011;14546;47.590;19.022;2023-08-17T02:10:50;19.83;;;17.73;;
27003;SDS011;14546;47.590;19.022;2023-08-17T02:13:16;25.52;;;18.17;;
27003;SDS011;14546;47.590;19.022;2023-08-17T02:15:42;22.55;;;16.52;;
27003;SDS011;14546;47.590;19.022;2023-08-17T02:18:08;19.48;;;16.33;;
27003;SDS011;14546;47.590;19.022;2023-08-17T02:20:34;23.33;;;16.60;;
27003;SDS011;14546;47.590;19.022;2023-08-17T02:23:00;19.15;;;17.02;;
27003;SDS011;14546;47.590;19.022;2023-08-17T02:25:26;23.30;;;16.20;;
27003;SDS011;14546;47.590;19.022;2023-08-17T02:27:59;21.48;;;16.65;;
27003;SDS011;14546;47.590;19.022;2023-08-17T02:30:25;19.95;;;16.40;;
27003;SDS011;14546;47.590;19.022;2023-08-17T02:32:51;19.42;;;16.88;;
27003;SDS011;14546;47.590;19.022;2023-08-17T02:35:17;26.38;;;17.73;;
27003;SDS011;14546;47.590;19.022;2023-08-17T02:37:43;26.65;;;18.17;;
27003;SDS011;14546;47.590;19.022;2023-08-17T02:40:09;29.00;;;17.83;;
27003;SDS011;14546;47.590;19.022;2023-08-17T02:42:35;22.55;;;17.65;;
27003;SDS011;14546;47.590;19.022;2023-08-17T02:45:01;21.65;;;17.52;;
27003;SDS011;14546;47.590;19.022;2023-08-17T02:47:27;18.63;;;16.70;;
27003;SDS011;14546;47.590;19.022;2023-08-17T02:49:53;25.23;;;17.95;;
27003;SDS011;14546;47.590;19.022;2023-08-17T02:52:19;22.48;;;17.38;;
27003;SDS011;14546;47.590;19.022;2023-08-17T02:54:45;20.63;;;18.20;;
27003;SDS011;14546;47.590;19.022;2023-08-17T02:57:12;21.08;;;18.55;;
27003;SDS011;14546;47.590;19.022;2023-08-17T02:59:38;18.65;;;16.85;;
27003;SDS011;14546;47.590;19.022;2023-08-17T03:02:04;20.98;;;18.73;;
27003;SDS011;14546;47.590;19.022;2023-08-17T03:04:30;24.45;;;17.65;;
27003;SDS011;14546;47.590;19.022;2023-08-17T03:06:57;21.98;;;17.15;;
27003;SDS011;14546;47.590;19.022;2023-08-17T03:09:23;24.05;;;17.60;;
27003;SDS011;14546;47.590;19.022;2023-08-17T03:11:49;18.75;;;16.27;;
27003;SDS011;14546;47.590;19.022;2023-08-17T03:14:16;20.38;;;16.10;;
27003;SDS011;14546;47.590;19.022;2023-08-17T03:16:42;19.02;;;16.05;;
27003;SDS011;14546;47.590;19.022;2023-08-17T03:19:08;20.92;;;16.83;;
27003;SDS011;14546;47.590;19.022;2023-08-17T03:21:36;23.83;;;16.80;;
27003;SDS011;14546;47.590;19.022;2023-08-17T03:24:02;24.90;;;16.27;;
27003;SDS011;14546;47.590;19.022;2023-08-17T03:26:28;17.90;;;14.77;;
27003;SDS011;14546;47.590;19.022;2023-08-17T03:28:54;22.70;;;15.18;;
27003;SDS011;14546;47.590;19.022;2023-08-17T03:31:21;25.23;;;15.55;;
27003;SDS011;14546;47.590;19.022;2023-08-17T03:33:47;25.55;;;16.38;;
27003;SDS011;14546;47.590;19.022;2023-08-17T03:36:13;19.33;;;16.80;;
27003;SDS011;14546;47.590;19.022;2023-08-17T03:38:39;23.25;;;16.73;;
27003;SDS011;14546;47.590;19.022;2023-08-17T03:41:05;21.20;;;14.43;;
27003;SDS011;14546;47.590;19.022;2023-08-17T03:43:32;29.27;;;16.13;;
27003;SDS011;14546;47.590;19.022;2023-08-17T03:45:58;21.90;;;16.73;;
27003;SDS011;14546;47.590;19.022;2023-08-17T03:48:24;25.38;;;17.33;;
27003;SDS011;14546;47.590;19.022;2023-08-17T03:50:56;20.30;;;16.77;;
27003;SDS011;14546;47.590;19.022;2023-08-17T03:53:22;20.48;;;16.45;;
27003;SDS011;14546;47.590;19.022;2023-08-17T03:55:49;21.00;;;16.52;;
27003;SDS011;14546;47.590;19.022;2023-08-17T03:58:17;18.35;;;16.42;;
27003;SDS011;14546;47.590;19.022;2023-08-17T04:00:50;20.85;;;16.00;;
27003;SDS011;14546;47.590;19.022;2023-08-17T04:03:16;21.38;;;16.13;;
27003;SDS011;14546;47.590;19.022;2023-08-17T04:05:43;17.38;;;15.35;;
27003;SDS011;14546;47.590;19.022;2023-08-17T04:08:09;21.48;;;16.02;;
27003;SDS011;14546;47.590;19.022;2023-08-17T04:10:35;17.83;;;16.02;;
27003;SDS011;14546;47.590;19.022;2023-08-17T04:13:01;22.40;;;17.40;;
27003;SDS011;14546;47.590;19.022;2023-08-17T04:15:27;18.90;;;16.83;;
27003;SDS011;14546;47.590;19.022;2023-08-17T04:17:53;17.85;;;14.48;;
27003;SDS011;14546;47.590;19.022;2023-08-17T04:20:19;18.90;;;15.27;;
27003;SDS011;14546;47.590;19.022;2023-08-17T04:22:45;21.63;;;16.67;;
27003;SDS011;14546;47.590;19.022;2023-08-17T04:25:12;23.33;;;17.55;;
27003;SDS011;14546;47.590;19.022;2023-08-17T04:27:38;19.60;;;16.38;;
27003;SDS011;14546;47.590;19.022;2023-08-17T04:30:04;25.80;;;17.20;;
27003;SDS011;14546;47.590;19.022;2023-08-17T04:32:31;21.48;;;16.80;;
27003;SDS011;14546;47.590;19.022;2023-08-17T04:34:57;26.48;;;18.20;;
27003;SDS011;14546;47.590;19.022;2023-08-17T04:37:23;19.52;;;17.30;;
27003;SDS011;14546;47.590;19.022;2023-08-17T04:39:49;26.42;;;17.25;;
27003;SDS011;14546;47.590;19.022;2023-08-17T04:42:17;23.52;;;17.85;;
27003;SDS011;14546;47.590;19.022;2023-08-17T04:44:46;20.52;;;17.42;;
27003;SDS011;14546;47.590;19.022;2023-08-17T04:47:12;22.23;;;17.52;;
27003;SDS011;14546;47.590;19.022;2023-08-17T04:49:39;21.10;;;16.27;;
27003;SDS011;14546;47.590;19.022;2023-08-17T04:52:05;23.75;;;18.02;;
27003;SDS011;14546;47.590;19.022;2023-08-17T04:54:34;25.77;;;16.63;;
27003;SDS011;14546;47.590;19.022;2023-08-17T04:57:03;17.90;;;16.10;;
27003;SDS011;14546;47.590;19.022;2023-08-17T04:59:31;20.00;;;17.08;;
27003;SDS011;14546;47.590;19.022;2023-08-17T05:01:58;23.58;;;17.13;;
27003;SDS011;14546;47.590;19.022;2023-08-17T05:04:24;18.48;;;16.48;;
27003;SDS011;14546;47.590;19.022;2023-08-17T05:06:50;21.73;;;15.95;;
27003;SDS011;14546;47.590;19.022;2023-08-17T05:09:16;18.55;;;15.25;;
27003;SDS011;14546;47.590;19.022;2023-08-17T05:11:43;20.67;;;16.23;;
27003;SDS011;14546;47.590;19.022;2023-08-17T05:14:12;20.45;;;16.05;;
27003;SDS011;14546;47.590;19.022;2023-08-17T05:16:43;19.52;;;15.23;;
27003;SDS011;14546;47.590;19.022;2023-08-17T05:19:09;19.70;;;15.43;;
27003;SDS011;14546;47.590;19.022;2023-08-17T05:21:35;20.60;;;15.95;;
27003;SDS011;14546;47.590;19.022;2023-08-17T05:24:03;24.27;;;16.23;;
27003;SDS011;14546;47.590;19.022;2023-08-17T05:26:31;25.40;;;16.33;;
27003;SDS011;14546;47.590;19.022;2023-08-17T05:29:00;27.02;;;15.93;;
27003;SDS011;14546;47.590;19.022;2023-08-17T05:31:27;25.75;;;15.63;;
27003;SDS011;14546;47.590;19.022;2023-08-17T05:33:54;25.65;;;15.85;;
27003;SDS011;14546;47.590;19.022;2023-08-17T05:36:20;15.40;;;13.73;;
27003;SDS011;14546;47.590;19.022;2023-08-17T05:38:47;21.50;;;15.38;;
27003;SDS011;14546;47.590;19.022;2023-08-17T05:41:14;17.65;;;15.73;;
27003;SDS011;14546;47.590;19.022;2023-08-17T05:43:42;17.08;;;14.70;;
27003;SDS011;14546;47.590;19.022;2023-08-17T05:46:09;16.20;;;13.93;;
27003;SDS011;14546;47.590;19.022;2023-08-17T05:48:35;15.65;;;13.93;;
27003;SDS011;14546;47.590;19.022;2023-08-17T05:51:02;18.17;;;13.73;;
27003;SDS011;14546;47.590;19.022;2023-08-17T05:53:30;17.80;;;13.40;;
27003;SDS011;14546;47.590;19.022;2023-08-17T05:56:20;15.43;;;12.80;;
27003;SDS011;14546;47.590;19.022;2023-08-17T05:58:48;21.67;;;13.95;;
27003;SDS011;14546;47.590;19.022;2023-08-17T06:01:15;16.05;;;12.07;;
27003;SDS011;14546;47.590;19.022;2023-08-17T06:03:42;18.13;;;11.25;;
27003;SDS011;14546;47.590;19.022;2023-08-17T06:06:09;13.70;;;9.73;;
27003;SDS011;14546;47.590;19.022;2023-08-17T06:08:35;10.35;;;9.25;;
27003;SDS011;14546;47.590;19.022;2023-08-17T06:11:01;10.02;;;8.55;;
27003;SDS011;14546;47.590;19.022;2023-08-17T06:13:28;12.38;;;9.27;;
27003;SDS011;14546;47.590;19.022;2023-08-17T06:15:57;19.48;;;9.45;;
27003;SDS011;14546;47.590;19.022;2023-08-17T06:18:24;15.95;;;9.63;;
27003;SDS011;14546;47.590;19.022;2023-08-17T06:20:50;10.68;;;8.43;;
27003;SDS011;14546;47.590;19.022;2023-08-17T06:23:19;10.70;;;8.75;;
27003;SDS011;14546;47.590;19.022;2023-08-17T06:25:46;11.90;;;8.48;;
27003;SDS011;14546;47.590;19.022;2023-08-17T06:28:13;12.20;;;7.90;;
27003;SDS011;14546;47.590;19.022;2023-08-17T06:30:39;9.95;;;8.30;;
27003;SDS011;14546;47.590;19.022;2023-08-17T06:33:05;14.82;;;9.18;;
27003;SDS011;14546;47.590;19.022;2023-08-17T06:35:31;11.63;;;7.82;;
27003;SDS011;14546;47.590;19.022;2023-08-17T06:37:57;13.00;;;8.40;;
27003;SDS011;14546;47.590;19.022;2023-08-17T06:40:24;11.90;;;8.65;;
27003;SDS011;14546;47.590;19.022;2023-08-17T06:42:50;11.68;;;8.82;;
27003;SDS011;14546;47.590;19.022;2023-08-17T06:45:17;10.68;;;7.97;;
27003;SDS011;14546;47.590;19.022;2023-08-17T06:47:43;16.67;;;9.07;;
27003;SDS011;14546;47.590;19.022;2023-08-17T06:50:10;12.23;;;9.25;;
27003;SDS011;14546;47.590;19.022;2023-08-17T06:52:37;12.18;;;9.32;;
27003;SDS011;14546;47.590;19.022;2023-08-17T06:55:04;15.32;;;9.40;;
27003;SDS011;14546;47.590;19.022;2023-08-17T06:57:31;15.55;;;9.65;;
27003;SDS011;14546;47.590;19.022;2023-08-17T06:59:57;12.65;;;8.55;;
27003;SDS011;14546;47.590;19.022;2023-08-17T07:02:23;10.77;;;9.18;;
27003;SDS011;14546;47.590;19.022;2023-08-17T07:04:50;16.33;;;9.38;;
27003;SDS011;14546;47.590;19.022;2023-08-17T07:07:16;15.18;;;9.50;;
27003;SDS011;14546;47.590;19.022;2023-08-17T07:09:42;19.10;;;9.38;;
27003;SDS011;14546;47.590;19.022;2023-08-17T07:12:09;23.67;;;9.88;;
27003;SDS011;14546;47.590;19.022;2023-08-17T07:14:36;12.98;;;9.50;;
27003;SDS011;14546;47.590;19.022;2023-08-17T07:17:02;13.20;;;9.90;;
27003;SDS011;14546;47.590;19.022;2023-08-17T07:19:28;15.88;;;8.85;;
27003;SDS011;14546;47.590;19.022;2023-08-17T07:21:54;16.25;;;8.80;;
27003;SDS011;14546;47.590;19.022;2023-08-17T07:24:20;20.85;;;9.98;;
27003;SDS011;14546;47.590;19.022;2023-08-17T07:26:46;12.57;;;9.43;;
27003;SDS011;14546;47.590;19.022;2023-08-17T07:29:12;9.88;;;8.40;;
27003;SDS011;14546;47.590;19.022;2023-08-17T07:31:38;13.15;;;8.80;;
27003;SDS011;14546;47.590;19.022;2023-08-17T07:34:05;13.05;;;9.13;;
27003;SDS011;14546;47.590;19.022;2023-08-17T07:36:31;15.15;;;8.93;;
27003;SDS011;14546;47.590;19.022;2023-08-17T07:38:57;10.23;;;8.07;;
27003;SDS011;14546;47.590;19.022;2023-08-17T07:41:24;12.48;;;8.65;;
27003;SDS011;14546;47.590;19.022;2023-08-17T07:43:50;15.40;;;8.63;;
27003;SDS011;14546;47.590;19.022;2023-08-17T07:46:16;16.35;;;8.73;;
27003;SDS011;14546;47.590;19.022;2023-08-17T07:48:42;15.93;;;8.90;;
27003;SDS011;14546;47.590;19.022;2023-08-17T07:51:08;12.20;;;8.48;;
27003;SDS011;14546;47.590;19.022;2023-08-17T07:53:34;9.75;;;7.57;;
27003;SDS011;14546;47.590;19.022;2023-08-17T07:56:01;11.10;;;8.68;;
27003;SDS011;14546;47.590;19.022;2023-08-17T07:58:27;15.35;;;8.45;;
27003;SDS011;14546;47.590;19.022;2023-08-17T08:00:53;17.33;;;9.18;;
27003;SDS011;14546;47.590;19.022;2023-08-17T08:03:19;12.27;;;9.27;;
27003;SDS011;14546;47.590;19.022;2023-08-17T08:05:45;11.13;;;9.13;;
27003;SDS011;14546;47.590;19.022;2023-08-17T08:08:11;13.82;;;9.57;;
27003;SDS011;14546;47.590;19.022;2023-08-17T08:10:37;15.35;;;9.50;;
27003;SDS011;14546;47.590;19.022;2023-08-17T08:13:04;12.35;;;9.55;;
27003;SDS011;14546;47.590;19.022;2023-08-17T08:15:30;11.82;;;8.95;;
27003;SDS011;14546;47.590;19.022;2023-08-17T08:17:56;13.57;;;9.38;;
27003;SDS011;14546;47.590;19.022;2023-08-17T08:20:22;12.52;;;8.93;;
27003;SDS011;14546;47.590;19.022;2023-08-17T08:22:48;12.13;;;9.15;;
27003;SDS011;14546;47.590;19.022;2023-08-17T08:25:14;15.43;;;8.88;;
27003;SDS011;14546;47.590;19.022;2023-08-17T08:27:40;17.73;;;8.50;;
27003;SDS011;14546;47.590;19.022;2023-08-17T08:30:06;11.27;;;7.28;;
27003;SDS011;14546;47.590;19.022;2023-08-17T08:32:32;16.73;;;6.50;;
27003;SDS011;14546;47.590;19.022;2023-08-17T08:34:58;16.48;;;6.68;;
27003;SDS011;14546;47.590;19.022;2023-08-17T08:37:24;15.57;;;6.68;;
27003;SDS011;14546;47.590;19.022;2023-08-17T08:39:54;9.18;;;6.57;;
27003;SDS011;14546;47.590;19.022;2023-08-17T08:42:21;6.60;;;5.75;;
27003;SDS011;14546;47.590;19.022;2023-08-17T08:44:47;19.45;;;6.20;;
27003;SDS011;14546;47.590;19.022;2023-08-17T08:47:13;7.65;;;6.15;;
27003;SDS011;14546;47.590;19.022;2023-08-17T08:49:40;6.95;;;5.45;;
27003;SDS011;14546;47.590;19.022;2023-08-17T08:52:08;7.75;;;4.68;;
27003;SDS011;14546;47.590;19.022;2023-08-17T08:54:37;8.95;;;4.75;;
27003;SDS011;14546;47.590;19.022;2023-08-17T08:57:06;7.30;;;5.10;;
27003;SDS011;14546;47.590;19.022;2023-08-17T08:59:34;9.05;;;4.80;;
27003;SDS011;14546;47.590;19.022;2023-08-17T09:02:01;6.85;;;3.97;;
27003;SDS011;14546;47.590;19.022;2023-08-17T09:04:29;4.75;;;3.42;;
27003;SDS011;14546;47.590;19.022;2023-08-17T09:06:55;5.47;;;3.63;;
27003;SDS011;14546;47.590;19.022;2023-08-17T09:09:21;11.35;;;4.03;;
27003;SDS011;14546;47.590;19.022;2023-08-17T09:11:47;8.10;;;3.65;;
27003;SDS011;14546;47.590;19.022;2023-08-17T09:14:13;6.07;;;3.22;;
27003;SDS011;14546;47.590;19.022;2023-08-17T09:16:39;5.20;;;3.72;;
27003;SDS011;14546;47.590;19.022;2023-08-17T09:19:05;6.00;;;3.70;;
27003;SDS011;14546;47.590;19.022;2023-08-17T09:21:32;6.30;;;3.70;;
27003;SDS011;14546;47.590;19.022;2023-08-17T09:23:58;12.15;;;4.50;;
27003;SDS011;14546;47.590;19.022;2023-08-17T09:26:24;5.35;;;4.20;;
27003;SDS011;14546;47.590;19.022;2023-08-17T09:28:50;5.80;;;3.70;;
27003;SDS011;14546;47.590;19.022;2023-08-17T09:31:20;11.52;;;4.50;;
27003;SDS011;14546;47.590;19.022;2023-08-17T09:33:52;8.55;;;4.18;;
27003;SDS011;14546;47.590;19.022;2023-08-17T09:36:22;8.05;;;3.45;;
27003;SDS011;14546;47.590;19.022;2023-08-17T09:38:48;5.80;;;4.32;;
27003;SDS011;14546;47.590;19.022;2023-08-17T09:41:15;8.50;;;4.00;;
27003;SDS011;14546;47.590;19.022;2023-08-17T09:43:41;4.35;;;3.88;;
27003;SDS011;14546;47.590;19.022;2023-08-17T09:46:07;5.85;;;3.70;;
27003;SDS011;14546;47.590;19.022;2023-08-17T09:48:33;6.35;;;4.05;;
27003;SDS011;14546;47.590;19.022;2023-08-17T09:50:59;5.72;;;3.95;;
27003;SDS011;14546;47.590;19.022;2023-08-17T09:53:26;7.10;;;3.83;;
27003;SDS011;14546;47.590;19.022;2023-08-17T09:55:52;5.97;;;3.95;;
27003;SDS011;14546;47.590;19.022;2023-08-17T09:58:20;5.63;;;4.25;;
27003;SDS011;14546;47.590;19.022;2023-08-17T10:00:47;4.50;;;3.60;;
27003;SDS011;14546;47.590;19.022;2023-08-17T10:03:14;8.23;;;3.92;;
27003;SDS011;14546;47.590;19.022;2023-08-17T10:05:41;8.30;;;3.50;;
27003;SDS011;14546;47.590;19.022;2023-08-17T10:08:08;11.73;;;4.28;;
27003;SDS011;14546;47.590;19.022;2023-08-17T10:10:36;11.23;;;4.90;;
27003;SDS011;14546;47.590;19.022;2023-08-17T10:13:11;6.57;;;4.13;;
27003;SDS011;14546;47.590;19.022;2023-08-17T10:15:44;5.28;;;3.72;;
27003;SDS011;14546;47.590;19.022;2023-08-17T10:18:21;5.97;;;3.53;;
27003;SDS011;14546;47.590;19.022;2023-08-17T10:20:51;5.63;;;3.97;;
27003;SDS011;14546;47.590;19.022;2023-08-17T10:23:20;8.35;;;3.90;;
27003;SDS011;14546;47.590;19.022;2023-08-17T10:25:48;4.70;;;3.95;;
27003;SDS011;14546;47.590;19.022;2023-08-17T10:28:15;8.25;;;4.20;;
27003;SDS011;14546;47.590;19.022;2023-08-17T10:30:41;8.65;;;4.40;;
27003;SDS011;14546;47.590;19.022;2023-08-17T10:33:08;6.38;;;4.18;;
27003;SDS011;14546;47.590;19.022;2023-08-17T10:35:35;8.43;;;4.07;;
27003;SDS011;14546;47.590;19.022;2023-08-17T10:38:02;5.30;;;4.13;;
27003;SDS011;14546;47.590;19.022;2023-08-17T10:40:36;6.38;;;3.95;;
27003;SDS011;14546;47.590;19.022;2023-08-17T10:43:02;6.68;;;4.30;;
27003;SDS011;14546;47.590;19.022;2023-08-17T10:45:29;7.82;;;4.40;;
27003;SDS011;14546;47.590;19.022;2023-08-17T10:50:37;10.00;;;4.35;;
27003;SDS011;14546;47.590;19.022;2023-08-17T10:53:04;7.63;;;3.80;;
27003;SDS011;14546;47.590;19.022;2023-08-17T10:56:07;4.80;;;3.50;;
27003;SDS011;14546;47.590;19.022;2023-08-17T10:58:26;9.65;;;3.60;;
27003;SDS011;14546;47.590;19.022;2023-08-17T11:00:57;5.72;;;3.50;;
27003;SDS011;14546;47.590;19.022;2023-08-17T11:03:23;6.57;;;3.28;;
27003;SDS011;14546;47.590;19.022;2023-08-17T11:05:53;4.68;;;3.30;;
27003;SDS011;14546;47.590;19.022;2023-08-17T11:13:26;5.47;;;3.47;;
27003;SDS011;14546;47.590;19.022;2023-08-17T11:15:53;6.55;;;4.05;;
27003;SDS011;14546;47.590;19.022;2023-08-17T11:18:19;6.30;;;3.72;;
27003;SDS011;14546;47.590;19.022;2023-08-17T11:20:45;7.07;;;3.70;;
27003;SDS011;14546;47.590;19.022;2023-08-17T11:23:13;5.85;;;3.33;;
27003;SDS011;14546;47.590;19.022;2023-08-17T11:25:39;4.55;;;3.35;;
27003;SDS011;14546;47.590;19.022;2023-08-17T11:28:06;3.90;;;3.30;;
27003;SDS011;14546;47.590;19.022;2023-08-17T11:30:33;4.78;;;3.42;;
27003;SDS011;14546;47.590;19.022;2023-08-17T11:33:01;6.65;;;3.47;;
27003;SDS011;14546;47.590;19.022;2023-08-17T11:35:27;8.85;;;4.05;;
27003;SDS011;14546;47.590;19.022;2023-08-17T11:37:53;5.93;;;3.50;;
27003;SDS011;14546;47.590;19.022;2023-08-17T11:40:19;5.88;;;3.40;;
27003;SDS011;14546;47.590;19.022;2023-08-17T11:42:45;6.10;;;3.55;;
27003;SDS011;14546;47.590;19.022;2023-08-17T11:45:12;6.15;;;3.40;;
27003;SDS011;14546;47.590;19.022;2023-08-17T11:47:39;3.90;;;3.47;;
27003;SDS011;14546;47.590;19.022;2023-08-17T11:50:06;5.70;;;3.50;;
27003;SDS011;14546;47.590;19.022;2023-08-17T11:52:32;5.18;;;3.95;;
27003;SDS011;14546;47.590;19.022;2023-08-17T11:54:58;7.35;;;3.38;;
27003;SDS011;14546;47.590;19.022;2023-08-17T11:57:25;5.50;;;3.60;;
27003;SDS011;14546;47.590;19.022;2023-08-17T11:59:54;5.22;;;3.53;;
27003;SDS011;14546;47.590;19.022;2023-08-17T12:02:21;9.45;;;3.80;;
27003;SDS011;14546;47.590;19.022;2023-08-17T12:04:48;7.15;;;3.78;;
27003;SDS011;14546;47.590;19.022;2023-08-17T12:07:15;6.72;;;3.70;;
27003;SDS011;14546;47.590;19.022;2023-08-17T12:09:47;5.32;;;3.40;;
27003;SDS011;14546;47.590;19.022;2023-08-17T12:12:17;4.80;;;4.22;;
27003;SDS011;14546;47.590;19.022;2023-08-17T12:14:43;5.35;;;3.50;;
27003;SDS011;14546;47.590;19.022;2023-08-17T12:17:16;6.30;;;3.80;;
27003;SDS011;14546;47.590;19.022;2023-08-17T12:19:42;6.10;;;3.42;;
27003;SDS011;14546;47.590;19.022;2023-08-17T12:22:08;5.78;;;3.40;;
27003;SDS011;14546;47.590;19.022;2023-08-17T12:24:34;9.20;;;3.95;;
27003;SDS011;14546;47.590;19.022;2023-08-17T12:27:05;6.53;;;3.22;;
27003;SDS011;14546;47.590;19.022;2023-08-17T12:29:31;4.25;;;3.35;;
27003;SDS011;14546;47.590;19.022;2023-08-17T12:31:57;4.40;;;3.65;;
27003;SDS011;14546;47.590;19.022;2023-08-17T12:34:24;6.53;;;3.80;;
27003;SDS011;14546;47.590;19.022;2023-08-17T12:36:50;7.45;;;3.65;;
27003;SDS011;14546;47.590;19.022;2023-08-17T12:39:16;6.35;;;3.50;;
27003;SDS011;14546;47.590;19.022;2023-08-17T12:41:42;3.97;;;3.58;;
27003;SDS011;14546;47.590;19.022;2023-08-17T12:44:09;7.40;;;3.70;;
27003;SDS011;14546;47.590;19.022;2023-08-17T12:46:40;7.55;;;3.40;;
27003;SDS011;14546;47.590;19.022;2023-08-17T12:49:06;8.15;;;3.70;;
27003;SDS011;14546;47.590;19.022;2023-08-17T12:51:33;6.18;;;3.65;;
27003;SDS011;14546;47.590;19.022;2023-08-17T12:54:00;4.78;;;3.30;;
27003;SDS011;14546;47.590;19.022;2023-08-17T12:56:27;4.20;;;3.20;;
27003;SDS011;14546;47.590;19.022;2023-08-17T12:58:54;4.30;;;3.30;;
27003;SDS011;14546;47.590;19.022;2023-08-17T13:01:20;6.45;;;3.38;;
27003;SDS011;14546;47.590;19.022;2023-08-17T13:03:46;5.40;;;3.30;;
27003;SDS011;14546;47.590;19.022;2023-08-17T13:06:13;6.43;;;3.60;;
27003;SDS011;14546;47.590;19.022;2023-08-17T13:08:39;8.35;;;3.20;;
27003;SDS011;14546;47.590;19.022;2023-08-17T13:11:05;4.93;;;3.42;;
27003;SDS011;14546;47.590;19.022;2023-08-17T13:13:31;7.85;;;3.55;;
27003;SDS011;14546;47.590;19.022;2023-08-17T13:15:57;4.20;;;3.20;;
27003;SDS011;14546;47.590;19.022;2023-08-17T13:18:24;7.22;;;2.95;;
27003;SDS011;14546;47.590;19.022;2023-08-17T13:20:51;7.90;;;3.30;;
27003;SDS011;14546;47.590;19.022;2023-08-17T13:23:17;4.40;;;3.20;;
27003;SDS011;14546;47.590;19.022;2023-08-17T13:25:42;6.30;;;3.33;;
27003;SDS011;14546;47.590;19.022;2023-08-17T13:28:09;6.93;;;3.33;;
27003;SDS011;14546;47.590;19.022;2023-08-17T13:30:35;3.83;;;3.42;;
27003;SDS011;14546;47.590;19.022;2023-08-17T13:33:01;6.35;;;3.13;;
27003;SDS011;14546;47.590;19.022;2023-08-17T13:35:27;3.63;;;2.72;;
27003;SDS011;14546;47.590;19.022;2023-08-17T13:37:53;5.47;;;3.10;;
27003;SDS011;14546;47.590;19.022;2023-08-17T13:40:20;8.32;;;3.58;;
27003;SDS011;14546;47.590;19.022;2023-08-17T13:42:46;6.85;;;3.00;;
27003;SDS011;14546;47.590;19.022;2023-08-17T13:45:12;8.52;;;3.20;;
27003;SDS011;14546;47.590;19.022;2023-08-17T13:47:39;11.00;;;3.47;;
27003;SDS011;14546;47.590;19.022;2023-08-17T13:50:07;11.52;;;4.07;;
27003;SDS011;14546;47.590;19.022;2023-08-17T13:52:33;15.07;;;3.50;;
27003;SDS011;14546;47.590;19.022;2023-08-17T13:55:00;7.55;;;3.30;;
27003;SDS011;14546;47.590;19.022;2023-08-17T13:57:26;4.63;;;3.35;;
27003;SDS011;14546;47.590;19.022;2023-08-17T13:59:53;8.73;;;3.60;;
27003;SDS011;14546;47.590;19.022;2023-08-17T14:02:20;8.93;;;3.80;;
27003;SDS011;14546;47.590;19.022;2023-08-17T14:04:47;4.43;;;3.47;;
27003;SDS011;14546;47.590;19.022;2023-08-17T14:07:13;8.00;;;3.85;;
27003;SDS011;14546;47.590;19.022;2023-08-17T14:09:39;7.07;;;3.83;;
27003;SDS011;14546;47.590;19.022;2023-08-17T14:12:05;6.43;;;3.83;;
27003;SDS011;14546;47.590;19.022;2023-08-17T14:14:31;6.93;;;4.03;;
27003;SDS011;14546;47.590;19.022;2023-08-17T14:16:58;7.82;;;4.22;;
27003;SDS011;14546;47.590;19.022;2023-08-17T14:19:24;6.78;;;3.90;;
27003;SDS011;14546;47.590;19.022;2023-08-17T14:21:50;8.20;;;4.43;;
27003;SDS011;14546;47.590;19.022;2023-08-17T14:24:17;7.05;;;4.80;;
27003;SDS011;14546;47.590;19.022;2023-08-17T14:26:43;7.97;;;4.03;;
27003;SDS011;14546;47.590;19.022;2023-08-17T14:29:09;10.57;;;4.60;;
27003;SDS011;14546;47.590;19.022;2023-08-17T14:31:35;9.27;;;5.18;;